Time;durP1;ratioP1;P1;durP2;ratioP2;P2;SDS_P1;SDS_P2;PMS_P1;PMS_P2;Temp;Humidity;BMP_temperature;BMP_pressure;BME280_temperature;BME280_humidity;BME280_pressure;Samples;Min_cycle;Max_cycle;Signal;HPM_P1;HPM_P2
2021/01/29 00:02:06;;;;;;;1.00;0.75;;;;;;;8.03;84.08;94250.19;5011520;28;20515;-67
2021/01/29 00:04:31;;;;;;;0.73;0.57;;;;;;;7.96;84.49;94235.88;5011570;28;20096;-67
2021/01/29 00:06:57;;;;;;;0.80;0.80;;;;;;;7.97;84.29;94232.91;5011426;28;20034;-67
2021/01/29 00:09:22;;;;;;;0.85;0.70;;;;;;;8.02;83.72;94214.22;5013706;28;20022;-66
2021/01/29 00:11:47;;;;;;;1.85;0.70;;;;;;;8.02;83.97;94229.31;5009958;28;20038;-67
2021/01/29 00:14:13;;;;;;;0.77;0.77;;;;;;;8.11;83.91;94227.47;4993824;28;20274;-68
2021/01/29 00:16:38;;;;;;;0.70;0.70;;;;;;;8.13;83.70;94222.63;5011496;28;20046;-67
2021/01/29 00:19:03;;;;;;;0.70;0.70;;;;;;;8.09;83.64;94229.66;5011297;28;20046;-67
2021/01/29 00:21:29;;;;;;;0.75;0.75;;;;;;;8.21;82.94;94226.41;5013129;28;20512;-66
2021/01/29 00:23:55;;;;;;;0.70;0.70;;;;;;;8.43;81.62;94233.44;5011097;28;20044;-66
2021/01/29 00:26:20;;;;;;;1.00;0.70;;;;;;;8.41;82.15;94233.75;5011258;28;20118;-67
2021/01/29 00:28:46;;;;;;;0.60;0.60;;;;;;;8.06;82.04;94199.28;5011015;28;20411;-67
2021/01/29 00:31:11;;;;;;;0.50;0.50;;;;;;;8.23;82.02;94224.22;5011094;28;20050;-68
2021/01/29 00:33:36;;;;;;;0.60;0.60;;;;;;;8.60;80.64;94217.56;5010996;28;20030;-67
2021/01/29 00:36:02;;;;;;;0.40;0.40;;;;;;;8.54;80.89;94214.25;5013008;28;20022;-68
2021/01/29 00:38:27;;;;;;;0.95;0.60;;;;;;;8.49;80.92;94208.34;5010665;28;20046;-67
2021/01/29 00:40:53;;;;;;;0.75;0.50;;;;;;;8.39;81.69;94217.38;5010938;28;20045;-67
2021/01/29 00:43:18;;;;;;;0.90;0.90;;;;;;;8.30;81.80;94208.63;5010628;28;20128;-67
2021/01/29 00:45:44;;;;;;;0.60;0.60;;;;;;;8.01;82.67;94203.94;5010749;28;20038;-67
2021/01/29 00:48:09;;;;;;;2.28;0.90;;;;;;;8.18;82.35;94214.53;4995180;28;20053;-67
2021/01/29 00:50:36;;;;;;;0.90;0.88;;;;;;;8.12;82.25;94213.13;5010665;28;20038;-67
2021/01/29 00:53:01;;;;;;;0.70;0.70;;;;;;;8.23;81.77;94213.59;4992598;28;20435;-66
2021/01/29 00:55:28;;;;;;;0.77;0.77;;;;;;;8.11;82.23;94210.81;5010711;28;20049;-67
2021/01/29 00:57:53;;;;;;;0.90;0.80;;;;;;;8.08;82.12;94191.00;5010538;28;20542;-68
2021/01/29 01:00:19;;;;;;;0.98;0.82;;;;;;;8.16;81.91;94216.72;5012707;28;20049;-67
2021/01/29 01:02:46;;;;;;;0.80;0.80;;;;;;;8.06;82.45;94201.13;4992673;28;20036;-68
2021/01/29 01:05:17;;;;;;;2.08;1.63;;;;;;;8.05;82.47;94203.00;5010620;28;20033;-67
2021/01/29 01:07:43;;;;;;;1.08;0.98;;;;;;;8.03;82.61;94199.88;5010027;28;20042;-67
2021/01/29 01:10:09;;;;;;;0.88;0.88;;;;;;;8.12;82.37;94204.41;5010479;28;20381;-67
2021/01/29 01:12:34;;;;;;;1.48;0.75;;;;;;;8.06;82.72;94193.19;4992478;28;20149;-66
2021/01/29 01:15:01;;;;;;;0.85;0.85;;;;;;;7.97;82.37;94181.81;5011801;28;20034;-67
2021/01/29 01:17:26;;;;;;;1.77;0.90;;;;;;;7.84;83.40;94180.09;5009397;28;20100;-67
2021/01/29 01:19:51;;;;;;;0.55;0.55;;;;;;;7.83;83.13;94181.97;5010081;28;20443;-67
2021/01/29 01:22:17;;;;;;;0.60;0.60;;;;;;;8.07;82.50;94184.16;5009670;28;20688;-67
2021/01/29 01:24:42;;;;;;;0.70;0.60;;;;;;;8.06;81.87;94190.53;5010171;28;20025;-66
2021/01/29 01:27:13;;;;;;;0.60;0.35;;;;;;;8.04;82.59;94184.78;4994114;28;20026;-66
2021/01/29 01:29:39;;;;;;;0.60;0.60;;;;;;;8.06;82.84;94183.38;5010048;28;20096;-67
2021/01/29 01:32:05;;;;;;;0.63;0.63;;;;;;;8.15;82.65;94178.09;5009689;28;20269;-66
2021/01/29 01:34:31;;;;;;;0.60;0.60;;;;;;;8.13;82.55;94182.91;5009927;28;20076;-67
2021/01/29 01:36:57;;;;;;;0.47;0.47;;;;;;;7.99;82.60;94164.53;5009661;28;20049;-67
2021/01/29 01:39:22;;;;;;;0.45;0.45;;;;;;;8.08;83.10;94173.25;5011499;28;20369;-67
2021/01/29 01:41:47;;;;;;;1.35;0.35;;;;;;;8.21;81.72;94152.22;5009581;28;20026;-66
2021/01/29 01:44:30;;;;;;;0.63;0.50;;;;;;;8.52;80.75;94162.66;5009859;28;20720;-66
2021/01/29 01:46:56;;;;;;;0.52;0.52;;;;;;;8.12;81.41;94144.28;5009761;28;20034;-66
2021/01/29 01:49:25;;;;;;;0.40;0.38;;;;;;;8.16;82.27;94144.44;5009638;28;20049;-67
2021/01/29 01:52:01;;;;;;;0.40;0.40;;;;;;;8.51;80.79;94124.78;4991725;28;20492;-66
2021/01/29 01:54:45;;;;;;;0.57;0.40;;;;;;;8.73;79.96;94125.66;5011903;28;20061;-66
2021/01/29 01:57:13;;;;;;;0.40;0.40;;;;;;;8.41;80.84;94114.50;4992602;28;20547;-66
2021/01/29 01:59:43;;;;;;;0.43;0.40;;;;;;;8.69;79.96;94098.22;5008261;28;20141;-67
2021/01/29 02:02:12;;;;;;;0.40;0.40;;;;;;;8.53;80.52;94098.72;5009385;28;20038;-67
2021/01/29 02:04:42;;;;;;;0.65;0.40;;;;;;;8.52;80.04;94083.16;5009596;28;20041;-67
2021/01/29 02:07:53;;;;;;;0.40;0.40;;;;;;;8.66;80.07;94085.63;5009166;28;20046;-67
2021/01/29 02:10:20;;;;;;;0.50;0.35;;;;;;;8.92;78.76;94069.59;4967788;28;20141;-67
2021/01/29 02:12:46;;;;;;;0.40;0.40;;;;;;;8.93;78.56;94065.84;4967442;28;20515;-67
2021/01/29 02:15:14;;;;;;;0.47;0.30;;;;;;;8.41;80.74;94061.53;4991146;28;20069;-68
2021/01/29 02:18:10;;;;;;;0.32;0.32;;;;;;;8.52;80.43;94062.72;5008932;28;20038;-66
2021/01/29 02:20:53;;;;;;;0.45;0.40;;;;;;;8.51;80.16;94063.06;5009296;28;20399;-67
2021/01/29 02:23:40;;;;;;;0.65;0.28;;;;;;;8.43;81.73;94069.16;5008904;28;20602;-67
2021/01/29 02:26:15;;;;;;;1.23;0.28;;;;;;;8.46;80.93;94065.88;5009443;28;20038;-66
2021/01/29 02:29:06;;;;;;;0.98;0.20;;;;;;;8.30;81.91;94062.94;4991547;28;20056;-67
2021/01/29 02:32:09;;;;;;;0.57;0.40;;;;;;;8.48;81.44;94063.69;5008905;28;20042;-66
2021/01/29 02:34:43;;;;;;;;;;;;;;;8.63;80.84;94059.72;5008931;28;20054;-66
2021/01/29 02:37:27;;;;;;;0.30;0.30;;;;;;;8.69;80.45;94059.22;5008835;28;20028;-66
2021/01/29 02:40:20;;;;;;;0.50;0.30;;;;;;;8.77;80.04;94047.81;5009088;28;20041;-66
2021/01/29 02:42:49;;;;;;;1.25;0.40;;;;;;;8.54;81.28;94049.94;5008683;28;20137;-67
2021/01/29 02:45:33;;;;;;;2.10;0.40;;;;;;;8.73;80.64;94038.19;5010918;28;20462;-65
2021/01/29 02:48:23;;;;;;;0.40;0.40;;;;;;;8.73;80.81;94025.69;4991594;28;20030;-66
2021/01/29 02:51:06;;;;;;;0.60;0.60;;;;;;;8.77;81.64;94034.56;5008922;28;20042;-66
2021/01/29 02:53:44;;;;;;;0.50;0.50;;;;;;;8.74;82.70;94019.28;5008615;28;20046;-67
2021/01/29 02:56:30;;;;;;;0.40;0.40;;;;;;;8.77;82.62;94018.66;5009165;28;20488;-67
2021/01/29 02:59:03;;;;;;;0.68;0.60;;;;;;;8.74;82.06;94006.03;5008686;28;20041;-67
2021/01/29 03:02:09;;;;;;;1.05;0.47;;;;;;;8.67;82.47;94016.38;5008721;28;20038;-66
2021/01/29 03:04:48;;;;;;;0.90;0.45;;;;;;;8.91;81.58;94007.84;5008828;28;20045;-66
2021/01/29 03:07:20;;;;;;;0.38;0.38;;;;;;;8.91;80.97;94005.19;5008399;28;20038;-67
2021/01/29 03:09:53;;;;;;;1.38;0.50;;;;;;;9.33;79.85;94010.53;5008712;28;20030;-68
2021/01/29 03:12:28;;;;;;;0.57;0.57;;;;;;;9.42;79.51;94005.97;5010380;28;20054;-67
2021/01/29 03:15:12;;;;;;;0.88;0.45;;;;;;;9.25;79.71;93992.78;5008969;28;20061;-67
2021/01/29 03:18:05;;;;;;;0.85;0.45;;;;;;;9.33;79.38;93984.78;5008560;28;20133;-67
2021/01/29 03:20:36;;;;;;;0.65;0.38;;;;;;;9.42;79.72;93976.75;5008698;28;20132;-67
2021/01/29 03:23:11;;;;;;;0.35;0.28;;;;;;;8.81;81.71;93965.78;5008378;28;20718;-67
2021/01/29 03:25:42;;;;;;;0.38;0.30;;;;;;;8.85;82.75;93969.31;5008690;28;20751;-67
2021/01/29 03:28:15;;;;;;;1.55;0.40;;;;;;;8.50;84.37;93976.69;5008464;28;20042;-68
2021/01/29 03:30:46;;;;;;;0.50;0.50;;;;;;;8.28;85.43;93951.94;5008544;28;20400;-67
2021/01/29 03:33:13;;;;;;;0.85;0.30;;;;;;;8.15;87.17;93952.94;5010407;28;20045;-67
2021/01/29 03:35:55;;;;;;;0.40;0.40;;;;;;;7.75;89.06;93950.56;5008123;28;20042;-67
2021/01/29 03:38:31;;;;;;;0.98;0.40;;;;;;;7.39;91.98;93947.50;5007358;28;20042;-69
2021/01/29 03:41:13;;;;;;;2.83;0.50;;;;;;;7.25;93.18;93947.66;5008668;28;20073;-70
2021/01/29 03:44:08;;;;;;;2.33;0.77;;;;;;;7.40;94.38;93956.97;5008529;28;20498;-69
2021/01/29 03:47:06;;;;;;;1.98;0.85;;;;;;;7.44;94.16;93960.56;5007259;28;20523;-68
2021/01/29 03:49:43;;;;;;;1.60;1.30;;;;;;;7.71;93.29;93954.91;5011809;28;20053;-69
2021/01/29 03:52:24;;;;;;;3.63;1.20;;;;;;;7.55;94.76;93961.78;5011760;28;20042;-68
2021/01/29 03:55:01;;;;;;;1.75;1.48;;;;;;;7.50;94.49;93943.44;5012258;28;21417;-68
2021/01/29 03:58:18;;;;;;;5.72;1.85;;;;;;;7.46;94.71;93942.50;5013904;28;20030;-69
2021/01/29 04:01:11;;;;;;;3.10;2.00;;;;;;;7.96;92.59;93928.69;5006893;28;20255;-69
2021/01/29 04:04:11;;;;;;;2.05;1.73;;;;;;;7.92;91.62;93925.13;5011552;28;20042;-68
2021/01/29 04:06:43;;;;;;;2.58;1.95;;;;;;;8.01;91.36;93928.53;5010995;28;20403;-68
2021/01/29 04:09:24;;;;;;;2.72;1.85;;;;;;;8.23;91.53;93928.28;5013911;28;20029;-68
2021/01/29 04:11:53;;;;;;;2.08;1.60;;;;;;;8.07;90.67;93927.25;5011645;28;20603;-68
2021/01/29 04:14:41;;;;;;;2.10;2.00;;;;;;;7.79;90.69;93918.94;5011870;28;20038;-67
2021/01/29 04:17:14;;;;;;;4.30;1.70;;;;;;;8.14;91.09;93921.47;5011898;28;20069;-68
2021/01/29 04:19:44;;;;;;;1.63;1.52;;;;;;;7.87;91.50;93896.94;5011645;28;20145;-69
2021/01/29 04:22:24;;;;;;;2.85;1.70;;;;;;;8.19;91.03;93895.59;5011272;28;20037;-68
2021/01/29 04:25:07;;;;;;;2.53;2.30;;;;;;;8.20;90.88;93902.44;4993802;28;20033;-68
2021/01/29 04:27:37;;;;;;;2.05;1.45;;;;;;;7.92;90.69;93888.06;5011324;28;20475;-68
2021/01/29 04:30:17;;;;;;;1.77;1.10;;;;;;;7.45;90.46;93830.59;5013175;28;20034;-68
2021/01/29 04:32:47;;;;;;;3.90;1.15;;;;;;;7.96;90.28;93881.03;5010637;28;20222;-67
2021/01/29 04:35:16;;;;;;;2.03;1.35;;;;;;;7.85;89.44;93880.63;5011169;28;20038;-68
2021/01/29 04:37:52;;;;;;;2.20;0.95;;;;;;;7.74;89.13;93888.13;5010771;28;20376;-68
2021/01/29 04:40:36;;;;;;;1.02;0.70;;;;;;;7.49;90.25;93871.22;5011146;28;20042;-68
2021/01/29 04:43:08;;;;;;;0.98;0.95;;;;;;;7.58;88.74;93860.63;5010581;28;20034;-67
2021/01/29 04:45:52;;;;;;;;;;;;;;;7.42;88.99;93883.34;5011326;28;20112;-67
2021/01/29 04:48:32;;;;;;;0.40;0.40;;;;;;;7.52;88.49;93873.25;5012788;28;19971;-67
2021/01/29 04:51:35;;;;;;;1.02;0.60;;;;;;;7.56;87.50;93878.66;5011099;28;20403;-67
2021/01/29 04:54:39;;;;;;;2.17;0.47;;;;;;;7.53;86.97;93881.97;5011122;28;20491;-68
2021/01/29 04:57:38;;;;;;;0.30;0.30;;;;;;;7.45;86.85;93883.53;5010380;28;20080;-68
2021/01/29 05:00:10;;;;;;;0.80;0.40;;;;;;;7.41;87.77;93876.53;5011178;28;20535;-68
2021/01/29 05:03:13;;;;;;;1.48;0.40;;;;;;;7.36;86.57;93879.31;5010401;28;20046;-68
2021/01/29 05:06:05;;;;;;;1.00;0.40;;;;;;;7.16;87.24;93886.03;5010830;28;20050;-68
2021/01/29 05:09:08;;;;;;;2.30;0.30;;;;;;;7.14;87.86;93875.00;5010452;28;20076;-68
2021/01/29 05:11:42;;;;;;;;;;;;;;;7.17;86.61;93872.53;4992068;28;20037;-69
2021/01/29 05:14:23;;;;;;;0.80;0.50;;;;;;;7.22;87.72;93867.06;5010585;28;19917;-67
2021/01/29 05:16:57;;;;;;;1.42;0.40;;;;;;;7.12;88.33;93858.69;5010164;28;20044;-67
2021/01/29 05:19:44;;;;;;;1.02;0.30;;;;;;;6.89;87.78;93876.56;5010395;28;20049;-68
2021/01/29 05:22:21;;;;;;;6.07;0.50;;;;;;;6.99;88.42;93861.16;5009948;28;20491;-67
2021/01/29 05:24:47;;;;;;;1.70;0.40;;;;;;;6.77;88.99;93862.09;5009033;28;20472;-67
2021/01/29 05:27:24;;;;;;;0.63;0.40;;;;;;;6.85;89.60;93847.31;5011999;28;20025;-67
2021/01/29 05:29:58;;;;;;;1.75;0.47;;;;;;;6.74;90.09;93830.22;5009998;28;20042;-68
2021/01/29 05:32:52;;;;;;;0.85;0.35;;;;;;;6.67;89.37;93814.84;5009812;28;20076;-68
2021/01/29 05:35:44;;;;;;;1.02;0.30;;;;;;;6.69;90.05;93835.66;5010199;28;20499;-67
2021/01/29 05:38:41;;;;;;;2.72;0.50;;;;;;;6.55;90.02;93822.59;5009700;28;20092;-67
2021/01/29 05:41:15;;;;;;;2.25;0.40;;;;;;;6.66;89.94;93831.81;5010071;28;20045;-68
2021/01/29 05:44:01;;;;;;;0.43;0.30;;;;;;;6.61;90.53;93815.31;5009829;28;20038;-68
2021/01/29 05:46:40;;;;;;;1.23;0.60;;;;;;;6.78;90.09;93807.38;5009865;28;20041;-68
2021/01/29 05:49:25;;;;;;;1.45;0.70;;;;;;;6.60;90.82;93800.53;5009598;28;20033;-68
2021/01/29 05:52:13;;;;;;;1.23;0.70;;;;;;;6.72;90.75;93780.34;5009415;28;20042;-68
2021/01/29 05:55:00;;;;;;;1.45;0.80;;;;;;;6.68;91.46;93786.56;5009825;28;20022;-68
2021/01/29 05:58:08;;;;;;;1.73;0.70;;;;;;;6.75;91.32;93789.50;5011374;28;20094;-68
2021/01/29 06:00:39;;;;;;;1.23;0.93;;;;;;;6.62;90.82;93778.03;4980560;28;20041;-68
2021/01/29 06:03:26;;;;;;;1.83;1.00;;;;;;;6.63;91.90;93769.00;4993769;28;20030;-67
2021/01/29 06:06:35;;;;;;;2.42;1.70;;;;;;;6.58;91.19;93766.50;5009753;28;20042;-68
2021/01/29 06:09:21;;;;;;;2.65;1.20;;;;;;;6.71;90.90;93764.81;5009067;28;20033;-68
2021/01/29 06:12:13;;;;;;;1.40;1.30;;;;;;;6.57;91.65;93754.41;5009219;28;20050;-67
2021/01/29 06:15:03;;;;;;;3.22;1.40;;;;;;;6.92;91.10;93747.19;5009644;28;20049;-68
2021/01/29 06:17:37;;;;;;;3.70;1.40;;;;;;;6.65;90.78;93724.53;5009029;28;20041;-68
2021/01/29 06:20:21;;;;;;;2.50;1.20;;;;;;;6.89;90.81;93728.53;5009075;28;20076;-68
2021/01/29 06:23:01;;;;;;;3.90;1.40;;;;;;;6.92;90.35;93714.72;5008733;28;20399;-67
2021/01/29 06:25:35;;;;;;;1.90;1.50;;;;;;;6.99;90.40;93705.19;5008441;28;20038;-67
2021/01/29 06:28:31;;;;;;;7.53;1.95;;;;;;;7.30;89.75;93691.69;5007369;28;20467;-67
2021/01/29 06:31:02;;;;;;;1.30;1.20;;;;;;;6.94;89.99;93694.78;5009227;28;20038;-68
2021/01/29 06:33:49;;;;;;;2.17;1.38;;;;;;;6.99;89.42;93693.84;5010685;28;20037;-67
2021/01/29 06:36:31;;;;;;;2.60;1.10;;;;;;;7.26;88.99;93685.47;5009914;28;20042;-67
2021/01/29 06:39:11;;;;;;;1.20;0.77;;;;;;;6.70;89.63;93683.97;5008980;28;20636;-68
2021/01/29 06:41:48;;;;;;;1.67;1.00;;;;;;;6.83;89.38;93685.66;5008790;28;20104;-69
2021/01/29 06:44:44;;;;;;;1.75;1.30;;;;;;;7.13;89.02;93672.50;5009003;28;20044;-68
2021/01/29 06:47:31;;;;;;;2.45;0.93;;;;;;;7.17;88.61;93670.78;5008858;28;20132;-68
2021/01/29 06:50:06;;;;;;;1.15;0.80;;;;;;;7.05;88.54;93660.84;5008563;28;20042;-68
2021/01/29 06:53:00;;;;;;;1.65;1.13;;;;;;;7.04;88.79;93659.31;5008423;28;20041;-68
2021/01/29 06:55:57;;;;;;;1.20;1.10;;;;;;;6.84;88.18;93660.00;4974289;28;20049;-67
2021/01/29 06:58:44;;;;;;;2.47;1.10;;;;;;;6.65;88.61;93626.78;4990984;28;20042;-69
2021/01/29 07:01:12;;;;;;;3.22;0.90;;;;;;;7.17;87.60;93666.25;5008539;28;20057;-72
2021/01/29 07:03:53;;;;;;;0.70;0.70;;;;;;;6.94;88.42;93678.16;5008393;28;20022;-67
2021/01/29 07:06:53;;;;;;;2.47;0.95;;;;;;;7.00;87.56;93645.94;5010685;28;20018;-67
2021/01/29 07:09:44;;;;;;;0.50;0.40;;;;;;;6.89;88.00;93668.53;4942155;28;20133;-73
2021/01/29 07:12:26;;;;;;;2.67;0.80;;;;;;;6.73;89.00;93678.84;5009098;28;20046;-69
2021/01/29 07:15:35;;;;;;;0.55;0.50;;;;;;;6.84;88.50;93679.28;5009232;28;20034;-78
2021/01/29 07:18:13;;;;;;;1.63;0.50;;;;;;;6.68;89.10;93678.22;4992180;28;20042;-67
2021/01/29 07:20:54;;;;;;;0.30;0.30;;;;;;;6.90;89.22;93677.22;4989196;28;20069;-66
2021/01/29 07:23:31;;;;;;;0.50;0.38;;;;;;;7.12;87.92;93657.72;5009392;28;20042;-66
2021/01/29 07:26:19;;;;;;;0.90;0.40;;;;;;;7.08;87.64;93657.59;5010966;28;20180;-65
2021/01/29 07:28:44;;;;;;;0.30;0.30;;;;;;;7.16;87.36;93653.34;5012016;28;20049;-65
2021/01/29 07:31:42;;;;;;;0.20;0.20;;;;;;;7.32;86.44;93656.22;5012117;28;20042;-64
2021/01/29 07:34:23;;;;;;;0.30;0.30;;;;;;;7.23;85.64;93654.41;5000021;28;20038;-66
2021/01/29 07:37:20;;;;;;;0.40;0.40;;;;;;;7.49;85.31;93656.13;5011987;28;20064;-65
2021/01/29 07:40:17;;;;;;;0.20;0.20;;;;;;;7.44;85.79;93657.09;5011936;28;20042;-64
2021/01/29 07:43:08;;;;;;;1.48;0.40;;;;;;;7.65;85.63;93646.53;4989886;28;20060;-66
2021/01/29 07:45:54;;;;;;;0.20;0.20;;;;;;;7.76;84.90;93660.16;5011787;28;20026;-65
2021/01/29 07:48:38;;;;;;;0.20;0.20;;;;;;;7.76;85.13;93650.34;5012343;28;20034;-66
2021/01/29 07:51:27;;;;;;;1.33;0.28;;;;;;;7.82;85.08;93649.06;5012154;28;20073;-66
2021/01/29 07:54:32;;;;;;;3.65;0.10;;;;;;;7.91;84.85;93635.78;5011609;28;20073;-65
2021/01/29 07:57:12;;;;;;;0.17;0.10;;;;;;;8.04;83.78;93653.28;5011977;28;20586;-65
2021/01/29 07:59:56;;;;;;;0.25;0.20;;;;;;;8.13;83.42;93652.41;5011580;28;20404;-65
2021/01/29 08:02:54;;;;;;;0.10;0.10;;;;;;;8.12;83.97;93667.53;5010079;28;20503;-66
2021/01/29 08:05:41;;;;;;;0.30;0.00;;;;;;;8.23;83.19;93666.03;5011659;28;20042;-68
2021/01/29 08:08:12;;;;;;;0.32;0.10;;;;;;;8.23;82.36;93655.44;5011625;28;20049;-67
2021/01/29 08:10:42;;;;;;;0.10;0.10;;;;;;;8.30;82.35;93682.19;5011839;28;20046;-67
2021/01/29 08:13:16;;;;;;;0.20;0.20;;;;;;;8.36;83.07;93676.72;5011146;28;20042;-66
2021/01/29 08:15:58;;;;;;;3.55;0.17;;;;;;;7.77;85.32;93627.31;5011572;28;20529;-66
2021/01/29 08:18:42;;;;;;;0.25;0.05;;;;;;;7.96;85.37;93707.06;5013156;28;20026;-67
2021/01/29 08:21:25;;;;;;;0.40;0.15;;;;;;;8.09;84.56;93713.22;5012322;28;20041;-65
2021/01/29 08:24:39;;;;;;;0.30;0.10;;;;;;;8.13;83.92;93692.16;5012217;28;20108;-67
2021/01/29 08:27:13;;;;;;;0.32;0.00;;;;;;;8.28;81.35;93678.31;5010841;28;20042;-66
2021/01/29 08:29:45;;;;;;;0.10;0.10;;;;;;;8.37;79.59;93655.22;5012278;28;20041;-66
2021/01/29 08:32:28;;;;;;;0.10;0.00;;;;;;;8.48;79.62;93685.50;5011166;28;20491;-66
2021/01/29 08:35:03;;;;;;;3.30;0.10;;;;;;;8.46;79.11;93676.34;5012117;28;20084;-65
2021/01/29 08:37:37;;;;;;;0.10;0.10;;;;;;;8.43;80.13;93676.97;5012288;28;20038;-70
2021/01/29 08:40:10;;;;;;;0.20;0.20;;;;;;;8.51;78.92;93661.00;5010931;28;20415;-66
2021/01/29 08:43:03;;;;;;;0.10;0.10;;;;;;;8.58;76.78;93673.72;5012034;28;20026;-67
2021/01/29 08:45:34;;;;;;;0.00;0.00;;;;;;;8.51;76.39;93694.69;4992797;28;20046;-66
2021/01/29 08:48:18;;;;;;;0.10;0.10;;;;;;;8.48;76.50;93695.31;5012241;28;20057;-66
2021/01/29 08:50:43;;;;;;;0.35;0.10;;;;;;;8.62;75.64;93713.59;5011244;28;20129;-66
2021/01/29 08:53:18;;;;;;;0.00;0.00;;;;;;;8.46;76.16;93719.50;5011365;28;20153;-65
2021/01/29 08:56:00;;;;;;;0.35;0.30;;;;;;;8.85;74.71;93733.34;5011899;28;20034;-66
2021/01/29 08:58:46;;;;;;;0.10;0.10;;;;;;;8.40;76.82;93715.50;5011889;28;20042;-68
2021/01/29 09:01:22;;;;;;;0.03;0.03;;;;;;;8.42;77.11;93723.13;5010543;28;20130;-69
2021/01/29 09:04:14;;;;;;;0.30;0.10;;;;;;;8.34;76.96;93722.06;5010559;28;20079;-70
2021/01/29 09:06:44;;;;;;;0.10;0.10;;;;;;;8.27;77.06;93729.75;5010358;28;20485;-68
2021/01/29 09:09:17;;;;;;;0.10;0.10;;;;;;;8.36;77.08;93732.34;5013416;28;20022;-66
2021/01/29 09:11:51;;;;;;;0.20;0.15;;;;;;;8.30;76.79;93756.38;5011275;28;20061;-78
2021/01/29 09:14:40;;;;;;;0.10;0.10;;;;;;;8.41;77.00;93738.25;5011988;28;20056;-70
2021/01/29 09:17:13;;;;;;;0.25;0.10;;;;;;;8.27;77.25;93714.63;5010407;28;20064;-69
2021/01/29 09:19:44;;;;;;;0.15;0.10;;;;;;;8.44;76.93;93745.53;5011645;28;20121;-72
2021/01/29 09:22:25;;;;;;;0.30;0.20;;;;;;;8.53;76.31;93750.78;5010572;28;20116;-80
2021/01/29 09:25:01;;;;;;;0.30;0.30;;;;;;;8.55;76.22;93761.84;4991646;28;20302;-72
2021/01/29 09:27:51;;;;;;;0.32;0.30;;;;;;;8.61;75.93;93755.25;4983458;28;20033;-67
2021/01/29 09:30:29;;;;;;;0.47;0.20;;;;;;;8.58;76.06;93745.28;5011555;28;20381;-79
2021/01/29 09:33:08;;;;;;;0.45;0.10;;;;;;;8.55;76.07;93759.19;5011298;28;20038;-77
2021/01/29 09:35:57;;;;;;;0.55;0.32;;;;;;;8.54;75.58;93761.03;5012742;28;20034;-74
2021/01/29 09:38:27;;;;;;;1.15;0.30;;;;;;;8.68;75.53;93757.34;5011633;28;20120;-78
2021/01/29 09:41:04;;;;;;;0.10;0.10;;;;;;;8.43;75.59;93757.25;4994127;28;20065;-76
2021/01/29 09:44:10;;;;;;;0.50;0.25;;;;;;;8.87;74.09;93762.97;5010733;28;20042;-72
2021/01/29 09:46:42;;;;;;;0.55;0.20;;;;;;;8.98;73.63;93763.34;4985197;28;20403;-72
2021/01/29 09:49:17;;;;;;;0.17;0.17;;;;;;;9.19;73.20;93761.41;4993239;28;20044;-71
2021/01/29 09:52:04;;;;;;;0.25;0.25;;;;;;;8.93;73.34;93771.50;5010017;28;20033;-70
2021/01/29 09:55:02;;;;;;;0.15;0.15;;;;;;;8.90;73.41;93766.81;5012690;28;20030;-71
2021/01/29 09:57:48;;;;;;;0.20;0.20;;;;;;;8.87;72.90;93759.53;5011827;28;20069;-72
2021/01/29 10:00:18;;;;;;;0.20;0.20;;;;;;;9.10;72.14;93753.53;4992716;28;20066;-72
2021/01/29 10:03:00;;;;;;;0.40;0.10;;;;;;;8.98;71.87;93768.63;5010418;28;20030;-73
2021/01/29 10:05:48;;;;;;;0.30;0.10;;;;;;;9.23;71.70;93788.81;5010737;28;20567;-73
2021/01/29 10:08:20;;;;;;;1.05;0.20;;;;;;;9.30;70.70;93762.53;5010236;28;20046;-73
2021/01/29 10:10:48;;;;;;;1.00;0.20;;;;;;;9.52;70.30;93769.31;5010661;28;20038;-73
2021/01/29 10:13:22;;;;;;;0.10;0.10;;;;;;;9.20;71.25;93770.13;5010019;28;20038;-73
2021/01/29 10:16:10;;;;;;;0.10;0.10;;;;;;;9.39;70.66;93759.78;5010504;28;20486;-74
2021/01/29 10:18:37;;;;;;;0.75;0.28;;;;;;;9.20;71.32;93770.13;5010423;28;20156;-74
2021/01/29 10:21:40;;;;;;;0.32;0.30;;;;;;;9.26;71.85;93776.78;5012166;28;20527;-76
2021/01/29 10:24:12;;;;;;;0.40;0.30;;;;;;;9.53;70.97;93780.72;4993203;28;20038;-73
2021/01/29 10:26:41;;;;;;;;;;;;;;;9.55;70.89;93789.09;4993210;28;20038;-73
2021/01/29 10:29:21;;;;;;;0.30;0.30;;;;;;;9.60;69.92;93786.25;4992465;28;19917;-73
2021/01/29 10:32:25;;;;;;;0.30;0.30;;;;;;;9.29;71.39;93778.78;5009962;28;20038;-74
2021/01/29 10:35:23;;;;;;;0.30;0.20;;;;;;;9.30;71.56;93775.00;4930555;29;20074;-74
2021/01/29 10:38:00;;;;;;;0.55;0.22;;;;;;;9.29;71.32;93790.16;5009176;28;20516;-74
2021/01/29 10:40:45;;;;;;;0.17;0.17;;;;;;;9.27;71.65;93779.13;5010156;28;20046;-74
2021/01/29 10:43:19;;;;;;;1.10;0.20;;;;;;;9.40;71.47;93784.44;4992117;28;20042;-73
2021/01/29 10:45:44;;;;;;;0.65;0.10;;;;;;;9.61;70.53;93791.22;5009750;28;20033;-73
2021/01/29 10:48:19;;;;;;;1.60;0.10;;;;;;;9.60;71.32;93791.56;5011802;28;20026;-73
2021/01/29 10:50:56;;;;;;;0.60;0.40;;;;;;;9.88;69.92;93786.38;5009704;28;20042;-75
2021/01/29 10:53:23;;;;;;;0.63;0.15;;;;;;;9.79;69.69;93791.78;5009548;28;20476;-74
2021/01/29 10:55:58;;;;;;;0.47;0.20;;;;;;;9.53;70.87;93786.78;4994366;28;20508;-72
2021/01/29 10:58:39;;;;;;;0.45;0.20;;;;;;;10.05;69.37;93777.41;5013782;28;20120;-70
2021/01/29 11:01:33;;;;;;;0.22;0.22;;;;;;;10.11;70.16;93781.38;4996419;28;20424;-68
2021/01/29 11:04:14;;;;;;;1.55;0.30;;;;;;;10.00;68.58;93794.34;4996146;28;20034;-71
2021/01/29 11:06:49;;;;;;;0.38;0.10;;;;;;;9.42;71.11;93806.91;5014873;28;20026;-71
2021/01/29 11:09:20;;;;;;;0.38;0.20;;;;;;;9.40;71.20;93787.09;5016643;28;20026;-70
2021/01/29 11:11:54;;;;;;;0.40;0.30;;;;;;;9.74;70.58;93805.28;4995866;28;20044;-67
2021/01/29 11:14:33;;;;;;;0.20;0.20;;;;;;;10.02;69.01;93813.38;5013676;28;20034;-66
2021/01/29 11:17:14;;;;;;;0.35;0.20;;;;;;;10.00;70.05;93799.66;5014082;28;20488;-67
2021/01/29 11:19:43;;;;;;;0.10;0.10;;;;;;;9.85;69.70;93800.31;4996683;28;20144;-67
2021/01/29 11:22:25;;;;;;;0.40;0.30;;;;;;;9.97;69.42;93802.19;4995857;28;20042;-68
2021/01/29 11:24:59;;;;;;;0.20;0.20;;;;;;;10.34;67.89;93809.09;5014740;28;20042;-70
2021/01/29 11:27:35;;;;;;;0.52;0.20;;;;;;;10.40;67.62;93791.03;5017757;28;20022;-71
2021/01/29 11:30:27;;;;;;;0.20;0.20;;;;;;;10.14;67.92;93792.13;5016863;28;20042;-67
2021/01/29 11:33:03;;;;;;;0.20;0.10;;;;;;;10.08;66.90;93774.88;4995360;28;20066;-71
2021/01/29 11:35:31;;;;;;;3.10;0.55;;;;;;;10.19;66.32;93787.72;5013276;28;20492;-72
2021/01/29 11:37:57;;;;;;;0.20;0.10;;;;;;;10.14;66.17;93778.84;5012617;28;20054;-72
2021/01/29 11:40:59;;;;;;;0.20;0.10;;;;;;;9.97;67.13;93792.34;5012656;28;20534;-71
2021/01/29 11:43:38;;;;;;;0.85;0.20;;;;;;;9.66;67.27;93795.53;4994930;28;20053;-70
2021/01/29 11:46:19;;;;;;;1.58;0.22;;;;;;;9.76;67.98;93781.81;4995073;28;20041;-70
2021/01/29 11:48:55;;;;;;;0.20;0.20;;;;;;;9.69;67.98;93794.88;5012766;28;20105;-70
2021/01/29 11:51:38;;;;;;;1.15;0.30;;;;;;;9.85;68.01;93800.31;5014109;28;20026;-71
2021/01/29 11:54:13;;;;;;;2.78;0.25;;;;;;;9.56;68.49;93782.69;5013133;28;20098;-73
2021/01/29 11:56:46;;;;;;;1.08;0.22;;;;;;;9.30;68.81;93778.44;5012787;28;20042;-71
2021/01/29 11:59:26;;;;;;;1.25;0.30;;;;;;;9.66;67.97;93795.53;4995120;28;20443;-72
2021/01/29 12:02:05;;;;;;;0.30;0.20;;;;;;;9.66;68.00;93792.09;5012631;28;20179;-74
2021/01/29 12:04:48;;;;;;;0.30;0.10;;;;;;;9.72;67.95;93778.28;4995240;28;20644;-68
2021/01/29 12:07:30;;;;;;;0.80;0.35;;;;;;;10.00;66.44;93780.28;5011391;28;20042;-79
2021/01/29 12:10:24;;;;;;;0.82;0.20;;;;;;;10.07;66.65;93769.88;5012674;28;20050;-69
2021/01/29 12:13:19;;;;;;;0.10;0.10;;;;;;;9.84;66.04;93791.56;4983302;28;20042;-69
2021/01/29 12:16:02;;;;;;;0.40;0.30;;;;;;;9.86;66.85;93773.41;4974568;28;20118;-69
2021/01/29 12:18:32;;;;;;;2.33;0.30;;;;;;;9.86;67.25;93784.03;4996554;28;20053;-69
2021/01/29 12:21:24;;;;;;;0.52;0.25;;;;;;;9.92;66.95;93781.16;5012417;28;20037;-70
2021/01/29 12:24:02;;;;;;;0.80;0.40;;;;;;;9.76;65.47;93763.25;4981710;28;20559;-72
2021/01/29 12:27:05;;;;;;;0.52;0.38;;;;;;;9.71;65.58;93789.22;5012498;28;20046;-71
2021/01/29 12:29:40;;;;;;;0.40;0.17;;;;;;;9.64;65.66;93784.47;4994513;28;20041;-68
2021/01/29 12:32:21;;;;;;;1.55;0.40;;;;;;;9.77;65.03;93777.28;4994329;28;20283;-69
2021/01/29 12:34:56;;;;;;;1.13;0.20;;;;;;;9.75;64.11;93782.94;5027761;22;20069;-64
2021/01/29 12:37:28;;;;;;;0.98;0.32;;;;;;;9.90;63.43;93739.78;5023988;28;20394;-64
2021/01/29 12:40:13;;;;;;;1.00;0.50;;;;;;;10.26;62.63;93772.75;5031648;28;20056;-65